KPGV

Pitt-Greenville Airport

Greenville, North Carolina, USA
METAR KPGV 220730Z AUTO 00000KT 7SM CLR 20/20 A3012 RMK AO2
Observed Flight Rules
Sep-22 @ 07:30 UTC (19 minutes ago) Visual Flight Rules
Visibility Clouds
7 miles
Temperatures Readings
Current 20°C / 68°F
Dewpoint 20°C / 68°F
Humidity 100%
Altimeter 30.12" Hg
Pressure 1020 hPa
Elevation 8
METAR KPGV 220730Z AUTO 00000KT 7SM CLR 20/20 A3012 RMK AO2
Observed Flight Rules
Sep-22 @ 07:30 UTC
(19 minutes ago)
VFR
Clouds
Temperature Dewpoint
20°C / 68°F 20°C / 68°F
Humidity Altimeter Pressure
100% 30.12" Hg 1020 hPa